Time;durP1;ratioP1;P1;durP2;ratioP2;P2;SDS_P1;SDS_P2;PMS_P1;PMS_P2;Temp;Humidity;BMP_temperature;BMP_pressure;BME280_temperature;BME280_humidity;BME280_pressure;Samples;Min_cycle;Max_cycle;Signal;HPM_P1;HPM_P2
2022/04/17 00:02:13;;;;;;;7.77;5.90;;;;;;;10.26;46.34;103132.72;5199138;28;20806;-46
2022/04/17 00:04:46;;;;;;;7.30;5.40;;;;;;;10.16;46.34;103120.06;5203081;28;20421;-46
2022/04/17 00:07:18;;;;;;;7.73;4.87;;;;;;;10.24;46.38;103135.44;5181698;28;20420;-47
2022/04/17 00:09:50;;;;;;;6.18;5.40;;;;;;;10.20;46.39;103128.66;5183797;28;20437;-46
2022/04/17 00:12:25;;;;;;;8.93;5.00;;;;;;;10.23;46.39;103144.31;5196688;28;20411;-49
2022/04/17 00:14:57;;;;;;;7.68;5.20;;;;;;;9.93;46.38;103088.88;5187380;28;20500;-45
2022/04/17 00:17:30;;;;;;;10.45;5.57;;;;;;;10.19;46.27;103129.59;5173903;28;20485;-50
2022/04/17 00:20:02;;;;;;;7.13;4.65;;;;;;;10.15;46.17;103123.63;5188719;28;20391;-46
2022/04/17 00:22:35;;;;;;;5.40;4.68;;;;;;;10.11;46.15;103114.19;5194604;28;20767;-47
2022/04/17 00:25:09;;;;;;;5.97;4.57;;;;;;;10.14;46.21;103124.56;5193280;28;20449;-56
2022/04/17 00:27:43;;;;;;;5.97;4.82;;;;;;;10.05;46.19;103106.63;5194069;28;20541;-48
2022/04/17 00:30:18;;;;;;;5.68;4.68;;;;;;;10.10;46.12;103117.78;5196518;28;20426;-52
2022/04/17 00:32:50;;;;;;;7.50;5.07;;;;;;;10.12;46.19;103115.88;5175706;28;20423;-49
2022/04/17 00:35:22;;;;;;;6.60;5.13;;;;;;;10.12;46.32;103115.03;5193286;28;20791;-49
2022/04/17 00:37:55;;;;;;;9.03;4.37;;;;;;;9.91;46.41;103075.78;5190885;28;20445;-46
2022/04/17 00:40:27;;;;;;;5.68;4.60;;;;;;;10.12;45.85;103110.59;5191234;28;20423;-50
2022/04/17 00:43:01;;;;;;;4.65;4.20;;;;;;;10.10;45.73;103101.94;5199293;28;20476;-47
2022/04/17 00:45:33;;;;;;;9.00;4.22;;;;;;;10.07;45.92;103096.84;5187218;28;20426;-52
2022/04/17 00:48:06;;;;;;;6.00;4.03;;;;;;;10.12;45.86;103093.91;5194701;28;20498;-52
2022/04/17 00:50:38;;;;;;;7.38;4.15;;;;;;;10.16;45.77;103101.56;5178249;28;20770;-47
2022/04/17 00:53:11;;;;;;;7.18;4.38;;;;;;;10.23;45.55;103095.94;5202897;28;20417;-52
2022/04/17 00:55:43;;;;;;;7.05;4.53;;;;;;;10.23;45.46;103095.94;5183021;28;20397;-52
2022/04/17 00:58:18;;;;;;;7.38;4.53;;;;;;;9.68;45.57;102994.47;5192819;28;20506;-51
2022/04/17 01:00:50;;;;;;;6.28;4.28;;;;;;;10.13;45.40;103075.34;5190293;28;20835;-50
2022/04/17 01:03:23;;;;;;;8.85;4.85;;;;;;;10.26;45.40;103085.19;5196581;28;20476;-49
2022/04/17 01:05:55;;;;;;;4.47;4.03;;;;;;;10.25;45.31;103078.19;5179928;28;20901;-47
2022/04/17 01:08:29;;;;;;;6.93;4.70;;;;;;;10.07;45.06;103081.00;5174804;28;20415;-45
2022/04/17 01:11:01;;;;;;;5.88;4.55;;;;;;;10.27;44.83;103079.81;5183663;28;20435;-45
2022/04/17 01:13:36;;;;;;;7.45;4.80;;;;;;;10.26;45.01;103085.19;5186214;28;21151;-49
2022/04/17 01:16:09;;;;;;;7.03;4.20;;;;;;;10.21;44.71;103074.03;5177076;28;20545;-46
2022/04/17 01:18:56;;;;;;;7.78;4.60;;;;;;;10.25;44.46;103079.06;5189949;28;20470;-47
2022/04/17 01:21:30;;;;;;;7.40;4.32;;;;;;;10.25;44.65;103081.69;5182355;28;20509;-50
2022/04/17 01:26:59;;;;;;;7.35;5.05;;;;;;;10.21;44.21;103081.97;5179250;28;20416;-47
2022/04/17 01:29:35;;;;;;;11.98;5.47;;;;;;;10.07;44.12;103064.31;5176895;28;20423;-46
2022/04/17 01:32:10;;;;;;;6.53;4.77;;;;;;;10.16;44.23;103084.88;5180950;28;20901;-50
2022/04/17 01:34:43;;;;;;;7.30;4.85;;;;;;;10.02;43.97;103056.66;5176315;28;20894;-48
2022/04/17 01:37:17;;;;;;;8.40;5.63;;;;;;;10.11;43.92;103071.09;5178762;28;22013;-54
2022/04/17 01:39:50;;;;;;;7.72;5.18;;;;;;;10.09;43.86;103063.25;5188059;28;20408;-52
2022/04/17 01:42:22;;;;;;;8.13;4.53;;;;;;;10.00;43.59;103050.59;5193540;28;20531;-48
2022/04/17 01:44:56;;;;;;;9.32;5.80;;;;;;;10.07;43.67;103067.81;5190228;28;20927;-49
2022/04/17 01:47:28;;;;;;;10.88;6.25;;;;;;;10.04;43.61;103065.34;5191962;28;20433;-48
2022/04/17 01:50:01;;;;;;;7.68;5.75;;;;;;;9.87;43.66;103050.50;5192068;28;20411;-44
2022/04/17 01:52:35;;;;;;;8.52;5.70;;;;;;;10.00;43.61;103071.72;5192541;28;20435;-50
2022/04/17 01:55:09;;;;;;;7.72;5.13;;;;;;;9.85;43.48;103049.75;5181805;28;20451;-46
2022/04/17 01:57:41;;;;;;;8.20;5.45;;;;;;;9.74;43.70;103030.22;5191675;28;20413;-46
2022/04/17 02:00:14;;;;;;;8.02;5.43;;;;;;;9.97;43.51;103066.63;5171817;28;20868;-44
2022/04/17 02:02:47;;;;;;;12.27;5.65;;;;;;;9.95;43.43;103068.53;5188878;28;20425;-47
2022/04/17 02:05:19;;;;;;;8.20;5.40;;;;;;;9.90;43.43;103071.44;5179815;28;20433;-49
2022/04/17 02:07:53;;;;;;;16.27;6.45;;;;;;;9.88;43.62;103069.84;5175125;28;20799;-46
2022/04/17 02:10:26;;;;;;;7.57;5.70;;;;;;;9.89;43.61;103071.53;5187335;28;20437;-47
2022/04/17 02:12:59;;;;;;;8.32;5.60;;;;;;;9.90;43.40;103073.22;5197206;28;20794;-45
2022/04/17 02:15:32;;;;;;;9.65;5.68;;;;;;;9.82;43.46;103059.66;5196658;28;20500;-46
2022/04/17 02:18:05;;;;;;;10.60;5.70;;;;;;;9.86;43.77;103066.44;5173261;28;20408;-47
2022/04/17 02:20:38;;;;;;;11.60;6.70;;;;;;;9.85;43.26;103062.09;5189082;28;20431;-45
2022/04/17 02:23:11;;;;;;;6.97;5.90;;;;;;;9.88;43.48;103059.28;5189849;28;20413;-48
2022/04/17 02:25:45;;;;;;;9.63;6.38;;;;;;;9.66;43.34;103028.88;5177051;28;20420;-44
2022/04/17 02:28:18;;;;;;;10.50;7.30;;;;;;;9.86;43.58;103055.88;5191488;28;20513;-54
2022/04/17 02:30:50;;;;;;;11.05;6.18;;;;;;;9.86;43.40;103062.00;5198167;28;20496;-48
2022/04/17 02:33:23;;;;;;;8.88;6.28;;;;;;;9.86;43.29;103062.00;5193685;28;20728;-52
2022/04/17 02:35:55;;;;;;;8.83;6.43;;;;;;;9.85;43.50;103054.19;5190821;28;20492;-47
2022/04/17 02:38:29;;;;;;;13.43;7.32;;;;;;;9.81;43.39;103068.47;5181143;28;20781;-50
2022/04/17 02:41:01;;;;;;;11.18;6.70;;;;;;;9.67;43.24;103046.41;5191616;28;20450;-49
2022/04/17 02:43:34;;;;;;;12.35;6.63;;;;;;;9.70;43.31;103054.13;5177481;28;20410;-50
2022/04/17 02:46:06;;;;;;;9.90;6.57;;;;;;;9.74;43.22;103064.50;5167454;28;20416;-46
2022/04/17 02:48:39;;;;;;;10.45;6.68;;;;;;;9.75;43.29;103058.28;5168860;28;20854;-45
2022/04/17 02:51:13;;;;;;;9.80;6.53;;;;;;;9.79;43.16;103060.66;5178798;28;20411;-44
2022/04/17 02:53:47;;;;;;;10.02;7.53;;;;;;;9.78;43.11;103058.94;5187471;28;20437;-48
2022/04/17 02:56:19;;;;;;;11.45;6.35;;;;;;;9.74;42.97;103046.03;5190441;28;20793;-45
2022/04/17 02:58:54;;;;;;;10.20;6.63;;;;;;;9.72;43.07;103055.81;5182541;28;20427;-48
2022/04/17 03:07:06;;;;;;;13.88;7.28;;;;;;;9.53;42.72;103033.16;5190765;28;20454;-50
2022/04/17 03:09:40;;;;;;;12.63;6.82;;;;;;;9.56;43.17;103043.53;5203800;28;20915;-47
2022/04/17 03:12:15;;;;;;;10.90;7.32;;;;;;;9.51;42.98;103037.69;5202286;28;20408;-47
2022/04/17 03:14:50;;;;;;;12.27;7.32;;;;;;;9.43;42.89;103027.56;5193919;28;20410;-51
2022/04/17 03:17:24;;;;;;;11.77;6.90;;;;;;;9.53;42.81;103038.44;5193843;28;20424;-49
2022/04/17 03:19:56;;;;;;;10.40;7.10;;;;;;;9.58;42.81;103046.94;5187690;28;20426;-46
2022/04/17 03:22:29;;;;;;;9.83;6.77;;;;;;;9.51;42.79;103034.19;5185913;28;20454;-48
2022/04/17 03:25:04;;;;;;;11.23;6.78;;;;;;;9.54;42.96;103029.59;5174463;28;20420;-48
2022/04/17 03:27:37;;;;;;;10.88;7.07;;;;;;;9.54;42.96;103031.34;5193743;28;20513;-52
2022/04/17 03:30:11;;;;;;;12.38;7.65;;;;;;;9.51;42.99;103029.78;5200800;28;20517;-47
2022/04/17 03:32:44;;;;;;;9.38;7.15;;;;;;;9.49;42.86;103026.38;5193512;28;20411;-44
2022/04/17 03:35:18;;;;;;;11.02;6.75;;;;;;;9.47;42.78;103025.59;5192246;28;20413;-49
2022/04/17 03:37:50;;;;;;;9.75;6.93;;;;;;;9.45;42.67;103030.13;5198166;28;20942;-46
2022/04/17 03:40:24;;;;;;;11.63;7.07;;;;;;;9.41;42.85;103016.28;5200443;28;20419;-48
2022/04/17 03:42:57;;;;;;;11.38;7.65;;;;;;;9.40;42.99;103011.06;5200679;28;20426;-51
2022/04/17 03:45:30;;;;;;;12.60;7.88;;;;;;;9.39;42.74;103019.94;5194291;28;20503;-46
2022/04/17 03:48:02;;;;;;;11.50;7.72;;;;;;;9.36;43.13;103012.19;5195007;28;20510;-49
2022/04/17 03:50:35;;;;;;;11.20;6.53;;;;;;;9.31;42.77;102998.41;5192186;28;20490;-55
2022/04/17 03:53:07;;;;;;;12.00;8.20;;;;;;;9.16;42.83;102982.53;5197139;28;20466;-47
2022/04/17 03:55:41;;;;;;;11.38;7.45;;;;;;;9.23;43.08;102989.19;5192576;28;20408;-49
2022/04/17 03:58:13;;;;;;;10.00;7.47;;;;;;;9.15;43.21;102975.56;5186322;28;20407;-44
2022/04/17 04:00:47;;;;;;;11.50;7.38;;;;;;;8.63;43.24;102910.00;5190342;28;20412;-48
2022/04/17 04:03:19;;;;;;;10.30;7.22;;;;;;;9.25;43.20;103004.88;5197466;28;20899;-47
2022/04/17 04:05:52;;;;;;;11.75;7.70;;;;;;;9.22;43.25;102995.38;5187201;28;20423;-45
2022/04/17 04:08:25;;;;;;;13.15;7.80;;;;;;;9.21;43.05;102996.31;5201403;28;20461;-48
2022/04/17 04:10:59;;;;;;;10.17;8.00;;;;;;;9.14;43.32;102994.13;5193021;28;20418;-48
2022/04/17 04:13:32;;;;;;;11.75;7.70;;;;;;;8.96;43.47;102996.00;5201903;28;20418;-51
2022/04/17 04:16:05;;;;;;;10.10;7.15;;;;;;;9.11;43.11;102989.88;5190679;28;20430;-46
2022/04/17 04:18:38;;;;;;;12.32;7.88;;;;;;;9.16;43.57;102998.34;5181308;28;20473;-45
2022/04/17 04:21:10;;;;;;;10.82;7.60;;;;;;;9.16;43.54;102985.16;5180973;28;20837;-52
2022/04/17 04:23:42;;;;;;;10.53;7.23;;;;;;;9.03;43.38;102968.38;5181934;28;20451;-48
2022/04/17 04:26:16;;;;;;;12.23;8.18;;;;;;;9.12;43.07;102981.03;5182344;28;20420;-47
2022/04/17 04:28:48;;;;;;;11.60;6.73;;;;;;;9.09;43.13;102983.81;5184176;28;20407;-49
2022/04/17 04:31:21;;;;;;;8.88;7.38;;;;;;;8.98;43.34;103002.03;5186427;28;20761;-49
2022/04/17 04:33:53;;;;;;;12.23;7.82;;;;;;;8.98;43.30;102973.03;5193090;28;20413;-50
2022/04/17 04:36:25;;;;;;;11.55;7.97;;;;;;;9.05;43.52;102986.75;5195437;28;20418;-48
2022/04/17 04:38:58;;;;;;;11.68;7.53;;;;;;;9.03;43.22;102976.28;5193844;28;20512;-45
2022/04/17 04:41:31;;;;;;;15.10;8.02;;;;;;;9.05;43.28;102977.03;5199587;28;20423;-49
2022/04/17 04:44:04;;;;;;;12.00;6.83;;;;;;;9.04;43.26;102987.66;5187921;28;20421;-48
2022/04/17 04:46:36;;;;;;;9.07;7.47;;;;;;;9.00;43.27;102977.28;5198959;28;20495;-52
2022/04/17 04:52:00;;;;;;;11.02;8.07;;;;;;;8.85;43.18;102948.31;5173064;28;20454;-48
2022/04/17 04:54:34;;;;;;;10.67;7.90;;;;;;;8.88;43.15;102946.34;5193887;28;20501;-50
2022/04/17 04:57:08;;;;;;;12.67;7.40;;;;;;;8.92;43.11;102958.44;5194087;28;20981;-46
2022/04/17 04:59:40;;;;;;;13.63;8.10;;;;;;;9.01;42.98;102972.88;5182568;28;20415;-50
2022/04/17 05:02:14;;;;;;;10.32;8.05;;;;;;;9.00;43.11;102976.44;5190795;28;20486;-45
2022/04/17 05:04:47;;;;;;;12.75;8.23;;;;;;;8.97;43.24;102972.19;5194005;28;20421;-47
2022/04/17 05:07:19;;;;;;;13.73;8.40;;;;;;;8.84;43.26;102950.13;5175293;28;20410;-49
2022/04/17 05:09:52;;;;;;;12.20;7.80;;;;;;;8.85;43.31;102948.31;5197885;28;20413;-46
2022/04/17 05:12:27;;;;;;;12.15;8.05;;;;;;;8.96;42.97;102969.66;5183895;28;22108;-49
2022/04/17 05:14:59;;;;;;;9.30;7.65;;;;;;;8.86;43.42;102948.25;5183108;28;20913;-44
2022/04/17 05:17:31;;;;;;;11.02;8.23;;;;;;;9.03;43.18;102978.91;5191523;28;20419;-46
2022/04/17 05:20:05;;;;;;;11.85;7.70;;;;;;;8.81;42.79;102938.91;5197655;28;20442;-44
2022/04/17 05:22:38;;;;;;;11.97;8.13;;;;;;;8.97;43.13;102971.34;5194346;28;20412;-45
2022/04/17 05:25:11;;;;;;;11.30;7.55;;;;;;;9.00;43.11;102982.56;5186341;28;20421;-46
2022/04/17 05:27:44;;;;;;;9.15;6.93;;;;;;;8.99;43.16;102987.94;5179117;28;20897;-48
2022/04/17 05:30:17;;;;;;;8.65;7.25;;;;;;;9.00;43.04;102985.19;5192945;28;20943;-51
2022/04/17 05:32:49;;;;;;;11.18;7.47;;;;;;;9.02;43.27;102989.56;5187208;28;20445;-47
2022/04/17 05:35:22;;;;;;;9.32;7.15;;;;;;;9.02;43.26;102982.50;5196391;28;20429;-47
2022/04/17 05:37:55;;;;;;;12.30;7.50;;;;;;;8.57;43.12;102936.69;5198691;28;20426;-45
2022/04/17 05:40:27;;;;;;;15.80;8.02;;;;;;;9.06;43.36;102976.09;5183480;28;20415;-47
2022/04/17 05:43:01;;;;;;;11.00;8.55;;;;;;;9.09;43.39;102975.91;5178038;28;20417;-50
2022/04/17 05:45:34;;;;;;;9.30;7.00;;;;;;;9.11;43.11;102976.69;5184274;28;20414;-45
2022/04/17 05:48:09;;;;;;;9.77;7.03;;;;;;;9.14;43.35;102973.88;5189989;28;20403;-48
2022/04/17 05:50:42;;;;;;;13.88;7.75;;;;;;;9.13;43.23;102973.97;5195887;28;20414;-53
2022/04/17 05:53:15;;;;;;;11.40;7.40;;;;;;;9.20;43.41;102978.81;5195343;28;20875;-48
2022/04/17 05:55:47;;;;;;;8.77;6.80;;;;;;;9.26;43.18;102984.63;5182840;28;20459;-46
2022/04/17 05:58:21;;;;;;;12.25;8.00;;;;;;;9.27;43.35;102978.44;5184478;28;20438;-47
2022/04/17 06:00:55;;;;;;;9.77;7.17;;;;;;;9.34;43.17;102979.78;5189920;28;20446;-52
2022/04/17 06:03:28;;;;;;;10.48;7.65;;;;;;;9.34;43.06;102970.06;5194351;28;20425;-48
2022/04/17 06:06:00;;;;;;;8.32;6.03;;;;;;;9.57;42.78;102976.66;5192443;28;20425;-46
2022/04/17 06:08:32;;;;;;;10.23;7.05;;;;;;;11.12;42.03;102982.00;5190260;28;20999;-48
2022/04/17 06:11:05;;;;;;;9.10;6.45;;;;;;;13.26;40.24;102976.75;5179454;28;20910;-50
2022/04/17 06:13:38;;;;;;;10.50;5.60;;;;;;;15.13;38.67;102973.44;5187499;28;20475;-48
2022/04/17 06:16:11;;;;;;;10.25;6.18;;;;;;;16.85;37.12;102974.59;5182724;28;20821;-50
2022/04/17 06:18:43;;;;;;;10.38;4.93;;;;;;;18.66;35.60;102970.88;5197425;28;20523;-50
2022/04/17 06:21:18;;;;;;;10.90;5.32;;;;;;;19.87;34.42;102955.97;5194384;28;20897;-51
2022/04/17 06:23:50;;;;;;;7.75;5.28;;;;;;;21.06;33.33;102971.94;5195924;28;20424;-52
2022/04/17 06:26:23;;;;;;;7.70;4.70;;;;;;;22.03;32.63;102967.44;5192994;28;20769;-54
2022/04/17 06:28:56;;;;;;;7.55;4.55;;;;;;;22.75;31.81;102948.38;5195256;28;20462;-51
2022/04/17 06:31:29;;;;;;;8.75;5.55;;;;;;;23.96;30.86;102967.34;5181328;28;20462;-54
2022/04/17 06:34:01;;;;;;;9.13;4.93;;;;;;;24.65;30.09;102965.06;5191572;28;20496;-53
2022/04/17 06:36:34;;;;;;;8.57;4.72;;;;;;;24.96;29.66;102945.00;5191963;28;20395;-54
2022/04/17 06:39:06;;;;;;;7.37;4.93;;;;;;;25.61;29.08;102965.53;5199572;28;20431;-55
2022/04/17 06:41:39;;;;;;;8.73;4.90;;;;;;;26.08;28.43;102949.56;5199397;28;20417;-54
2022/04/17 06:44:13;;;;;;;9.30;5.13;;;;;;;26.42;28.01;102951.34;5201313;28;20495;-53
2022/04/17 06:46:45;;;;;;;9.80;5.00;;;;;;;26.82;27.56;102951.41;5195202;28;20890;-55
2022/04/17 06:49:17;;;;;;;7.10;4.75;;;;;;;26.96;27.30;102954.97;5199222;28;20519;-52
2022/04/17 06:51:50;;;;;;;7.22;4.10;;;;;;;27.07;26.98;102952.47;5198136;28;20410;-56
2022/04/17 06:54:22;;;;;;;7.13;4.35;;;;;;;27.21;26.64;102949.78;5188496;28;20515;-54
2022/04/17 06:56:55;;;;;;;7.60;4.10;;;;;;;27.49;26.29;102947.66;5193226;28;20615;-55
2022/04/17 06:59:28;;;;;;;7.07;4.93;;;;;;;28.26;25.60;102942.38;5193824;28;20471;-53
2022/04/17 07:02:01;;;;;;;9.52;4.63;;;;;;;28.93;24.89;102942.81;5198254;28;20812;-57
2022/04/17 07:04:33;;;;;;;7.07;4.68;;;;;;;29.46;24.15;102936.88;5197502;28;20422;-56
2022/04/17 07:07:05;;;;;;;7.72;4.13;;;;;;;30.05;23.83;102943.53;5197022;28;20411;-58
2022/04/17 07:09:38;;;;;;;8.55;5.20;;;;;;;30.41;23.61;102928.16;5201308;28;20422;-57
2022/04/17 07:12:10;;;;;;;7.07;4.57;;;;;;;30.30;23.43;102937.97;5205287;28;20493;-57
2022/04/17 07:14:47;;;;;;;7.90;4.68;;;;;;;29.64;23.83;102915.13;5206173;28;20413;-58
2022/04/17 07:17:20;;;;;;;6.00;4.40;;;;;;;29.85;23.80;102934.78;5204654;28;20444;-58
2022/04/17 07:19:53;;;;;;;8.82;5.32;;;;;;;30.22;23.26;102930.13;5207452;28;20501;-58
2022/04/17 07:22:25;;;;;;;8.10;4.93;;;;;;;30.19;23.31;102925.09;5206721;28;20425;-59
2022/04/17 07:25:01;;;;;;;9.95;4.38;;;;;;;30.49;23.10;102924.28;5204626;28;20421;-58
2022/04/17 07:27:38;;;;;;;5.80;3.92;;;;;;;30.29;22.95;102913.69;5208312;28;20553;-58
2022/04/17 07:30:14;;;;;;;7.57;4.43;;;;;;;30.19;23.04;102927.81;5208424;28;20421;-58
2022/04/17 07:32:50;;;;;;;6.50;4.28;;;;;;;30.00;23.11;102899.78;5202752;28;20523;-59
2022/04/17 07:35:25;;;;;;;7.00;4.22;;;;;;;30.40;22.94;102925.69;5199588;28;20427;-58
2022/04/17 07:37:59;;;;;;;8.18;4.18;;;;;;;30.48;22.81;102928.09;5204432;28;20924;-60
2022/04/17 07:40:33;;;;;;;9.75;4.38;;;;;;;30.80;22.34;102919.63;5206619;28;20897;-58
2022/04/17 07:43:07;;;;;;;6.43;4.10;;;;;;;31.03;22.39;102914.19;5197261;28;20425;-58
2022/04/17 07:45:41;;;;;;;12.82;5.78;;;;;;;31.21;21.96;102922.25;5193313;28;20445;-59
2022/04/17 07:48:13;;;;;;;9.23;4.10;;;;;;;30.92;22.25;102909.56;5181851;28;20427;-59
2022/04/17 07:50:46;;;;;;;6.10;4.15;;;;;;;30.55;22.65;102918.72;5188377;28;20431;-59
2022/04/17 07:53:18;;;;;;;6.03;3.90;;;;;;;30.39;22.73;102913.13;5202291;28;20440;-53
2022/04/17 07:55:51;;;;;;;9.32;4.50;;;;;;;30.13;22.73;102909.69;5205719;28;20427;-53
2022/04/17 07:58:33;;;;;;;5.38;3.72;;;;;;;29.91;22.95;102886.72;5190165;28;20478;-57
2022/04/17 08:01:11;;;;;;;4.80;3.35;;;;;;;29.80;23.08;102905.53;5214855;28;20778;-60
2022/04/17 08:03:47;;;;;;;9.80;5.28;;;;;;;29.53;23.10;102907.69;5194254;28;20511;-60
2022/04/17 08:06:21;;;;;;;13.60;7.20;;;;;;;29.57;23.10;102911.59;5197811;28;20459;-59
2022/04/17 08:08:53;;;;;;;7.95;5.07;;;;;;;29.47;23.29;102908.59;5206295;28;20487;-58
2022/04/17 08:11:26;;;;;;;7.07;4.32;;;;;;;29.02;23.66;102913.44;5195741;28;20430;-58
2022/04/17 08:13:58;;;;;;;8.30;4.85;;;;;;;28.51;23.77;102901.69;5200975;28;20463;-59
2022/04/17 08:16:32;;;;;;;9.45;5.50;;;;;;;28.29;24.28;102909.34;5209576;28;20784;-60
2022/04/17 08:19:04;;;;;;;9.95;4.80;;;;;;;28.18;24.39;102915.47;5200428;28;20533;-59
2022/04/17 08:21:37;;;;;;;7.75;4.38;;;;;;;28.04;24.36;102909.28;5201689;28;20867;-58
2022/04/17 08:24:09;;;;;;;9.00;5.10;;;;;;;27.84;24.46;102856.94;5205975;28;20955;-60
2022/04/17 08:26:42;;;;;;;10.80;4.23;;;;;;;28.14;24.62;102912.34;5193571;28;20410;-60
2022/04/17 08:29:17;;;;;;;7.55;4.10;;;;;;;28.21;24.72;102913.16;5195382;28;20397;-58
2022/04/17 08:31:51;;;;;;;11.90;5.03;;;;;;;28.05;24.92;102914.47;5187396;28;20427;-59
2022/04/17 08:34:23;;;;;;;8.60;5.53;;;;;;;27.74;25.18;102917.09;5199629;28;20792;-60
2022/04/17 08:36:55;;;;;;;8.35;4.60;;;;;;;27.51;25.57;102907.56;5185035;28;20420;-58
2022/04/17 08:39:28;;;;;;;6.07;3.70;;;;;;;27.17;25.77;102905.16;5191629;28;21197;-59
2022/04/17 08:42:01;;;;;;;6.55;3.78;;;;;;;26.62;26.05;102856.53;5195596;28;20425;-60
2022/04/17 08:44:34;;;;;;;8.98;3.60;;;;;;;26.31;26.37;102905.88;5201175;28;22671;-59
2022/04/17 08:47:08;;;;;;;6.27;3.77;;;;;;;25.87;26.87;102907.19;5190640;28;20417;-59
2022/04/17 08:49:42;;;;;;;5.97;4.22;;;;;;;25.39;26.91;102871.94;5187568;28;20409;-59
2022/04/17 08:52:15;;;;;;;6.25;3.70;;;;;;;24.96;27.24;102896.34;5185367;28;20407;-54
2022/04/17 08:54:49;;;;;;;9.20;3.60;;;;;;;24.55;27.40;102873.56;5189268;28;20410;-58
2022/04/17 08:57:22;;;;;;;6.63;4.03;;;;;;;24.64;27.40;102903.97;5186632;28;20568;-59
2022/04/17 08:59:54;;;;;;;5.97;4.17;;;;;;;24.41;27.35;102884.41;5195719;28;20427;-58
2022/04/17 09:02:28;;;;;;;8.45;4.30;;;;;;;24.20;27.55;102891.44;5197527;28;20421;-57
2022/04/17 09:05:03;;;;;;;5.28;3.50;;;;;;;23.98;27.42;102897.84;5196006;28;20450;-57
2022/04/17 09:07:44;;;;;;;7.03;3.75;;;;;;;23.58;27.58;102898.13;5189139;28;20410;-56
2022/04/17 09:10:28;;;;;;;6.38;3.50;;;;;;;23.18;27.80;102861.66;5193705;28;20474;-58
2022/04/17 09:13:02;;;;;;;5.10;3.97;;;;;;;23.26;27.81;102888.53;5194559;28;20418;-58
2022/04/17 09:15:37;;;;;;;5.63;4.15;;;;;;;22.95;27.65;102857.16;5197254;28;20978;-58
2022/04/17 09:18:11;;;;;;;7.55;3.83;;;;;;;22.63;28.18;102881.66;5186167;28;20423;-57
2022/04/17 09:21:10;;;;;;;6.82;4.10;;;;;;;22.50;27.99;102883.09;5169724;28;20422;-58
2022/04/17 09:23:43;;;;;;;8.07;4.70;;;;;;;22.34;28.12;102877.81;5184614;28;20490;-57
2022/04/17 09:26:15;;;;;;;6.28;4.85;;;;;;;21.97;28.08;102839.00;5183285;28;20413;-57
2022/04/17 09:28:48;;;;;;;6.00;4.50;;;;;;;21.92;28.04;102867.44;5203702;28;20528;-51
2022/04/17 09:31:26;;;;;;;6.38;3.80;;;;;;;21.80;27.90;102875.03;5194539;28;20421;-55
2022/04/17 09:34:08;;;;;;;6.43;3.63;;;;;;;21.69;27.96;102872.75;5191014;28;20429;-57
2022/04/17 09:36:41;;;;;;;7.13;4.35;;;;;;;21.73;27.60;102861.47;5189357;28;20502;-57
2022/04/17 09:39:15;;;;;;;5.90;4.00;;;;;;;21.70;27.74;102869.03;5195742;28;20413;-55
2022/04/17 09:41:55;;;;;;;8.00;4.38;;;;;;;21.37;27.54;102861.94;5199095;28;20425;-52
2022/04/17 09:44:50;;;;;;;13.45;4.95;;;;;;;21.27;27.54;102852.34;5199362;28;20420;-57
2022/04/17 09:47:24;;;;;;;7.95;4.70;;;;;;;21.26;27.41;102856.03;5190407;28;21190;-54
2022/04/17 09:50:00;;;;;;;5.70;4.18;;;;;;;21.18;27.01;102849.69;5201785;28;20526;-49
2022/04/17 09:52:35;;;;;;;9.48;4.28;;;;;;;20.81;27.16;102814.47;5201718;28;20409;-49
2022/04/17 09:55:09;;;;;;;6.93;4.35;;;;;;;20.72;27.18;102846.72;5205571;28;20461;-48
2022/04/17 09:57:43;;;;;;;5.57;4.43;;;;;;;20.62;27.05;102848.69;5204623;28;21042;-48
2022/04/17 10:00:18;;;;;;;5.30;4.03;;;;;;;20.47;27.01;102826.19;5195797;28;20523;-55
2022/04/17 10:02:51;;;;;;;6.15;4.18;;;;;;;20.32;26.96;102823.34;5204726;28;20473;-53
2022/04/17 10:05:25;;;;;;;8.10;4.63;;;;;;;20.32;26.78;102826.03;5207133;28;20420;-52
2022/04/17 10:07:57;;;;;;;7.00;4.47;;;;;;;20.35;26.62;102814.97;5207202;28;20556;-56
2022/04/17 10:10:30;;;;;;;6.63;4.03;;;;;;;20.55;26.42;102825.41;5207886;28;20429;-57
2022/04/17 10:13:03;;;;;;;5.68;3.72;;;;;;;20.65;26.38;102816.16;5203632;28;20520;-53
2022/04/17 10:15:36;;;;;;;6.18;3.60;;;;;;;20.89;26.10;102812.63;5192487;28;20421;-53
2022/04/17 10:18:09;;;;;;;6.75;4.00;;;;;;;20.70;26.02;102802.25;5183663;28;20766;-51
2022/04/17 10:20:43;;;;;;;5.85;3.67;;;;;;;20.54;26.21;102813.81;5196605;28;20516;-52
2022/04/17 10:23:17;;;;;;;5.45;3.75;;;;;;;20.45;26.16;102809.44;5203234;28;20796;-54
2022/04/17 10:25:51;;;;;;;7.10;4.35;;;;;;;20.15;26.23;102787.59;5198792;28;20428;-50
2022/04/17 10:28:27;;;;;;;4.47;3.35;;;;;;;20.25;26.13;102804.38;5200903;28;20425;-51
2022/04/17 10:31:15;;;;;;;11.07;3.80;;;;;;;20.19;25.90;102788.09;5198207;28;20428;-50
2022/04/17 10:34:20;;;;;;;6.65;4.20;;;;;;;20.12;25.90;102776.34;5197141;28;20424;-54
2022/04/17 10:37:11;;;;;;;6.57;4.23;;;;;;;20.08;26.05;102793.78;5194505;28;20428;-51
2022/04/17 10:39:49;;;;;;;7.45;4.55;;;;;;;19.91;26.42;102792.91;5190981;27;20409;-48
2022/04/17 10:42:24;;;;;;;6.40;4.45;;;;;;;19.90;26.54;102789.38;5194175;28;20418;-54
2022/04/17 10:45:04;;;;;;;5.25;4.18;;;;;;;19.93;26.67;102774.81;5200734;28;20416;-51
2022/04/17 10:47:36;;;;;;;6.43;4.13;;;;;;;19.72;26.75;102775.25;5202224;28;20474;-54
2022/04/17 10:50:11;;;;;;;7.37;4.57;;;;;;;19.54;27.09;102776.19;5198057;28;20428;-50
2022/04/17 10:52:45;;;;;;;8.65;4.85;;;;;;;19.55;26.96;102779.72;5193409;28;20430;-54
2022/04/17 10:55:18;;;;;;;8.77;5.00;;;;;;;19.71;26.97;102768.22;5191764;28;20780;-58
2022/04/17 10:57:51;;;;;;;7.97;4.82;;;;;;;19.71;26.84;102757.50;5202483;28;20417;-49
2022/04/17 11:00:36;;;;;;;8.10;5.15;;;;;;;19.82;27.17;102759.91;5203855;28;20591;-54
2022/04/17 11:03:11;;;;;;;8.90;4.78;;;;;;;19.81;26.80;102761.72;5204301;28;21054;-55
2022/04/17 11:08:52;;;;;;;6.50;4.90;;;;;;;19.45;27.18;102730.75;5194310;28;20419;-50
2022/04/17 11:11:34;;;;;;;10.27;5.20;;;;;;;19.61;27.09;102741.53;5201718;28;20548;-53
2022/04/17 11:14:11;;;;;;;6.83;4.97;;;;;;;19.70;27.12;102735.22;5193239;28;20505;-48
2022/04/17 11:16:48;;;;;;;8.02;5.32;;;;;;;19.52;27.29;102721.06;5202182;28;20432;-46
2022/04/17 11:19:23;;;;;;;10.27;5.03;;;;;;;19.51;27.34;102727.41;5193015;28;20424;-49
2022/04/17 11:21:58;;;;;;;7.53;5.53;;;;;;;19.50;27.55;102733.78;5206405;28;20785;-48
2022/04/17 11:25:07;;;;;;;8.15;5.70;;;;;;;19.58;27.45;102715.06;5203094;28;20419;-52
2022/04/17 11:27:42;;;;;;;10.35;6.07;;;;;;;19.66;27.74;102723.13;5199146;28;20395;-52
2022/04/17 11:31:00;;;;;;;9.48;5.15;;;;;;;19.46;28.01;102711.00;5206386;28;20413;-50
2022/04/17 11:33:32;;;;;;;8.02;5.60;;;;;;;19.27;28.14;102712.94;5206809;28;20515;-50
2022/04/17 11:36:11;;;;;;;7.13;5.10;;;;;;;19.30;28.21;102707.25;5199025;28;20414;-50
2022/04/17 11:38:46;;;;;;;8.77;6.07;;;;;;;19.42;28.10;102705.13;5212655;28;20407;-51
2022/04/17 11:41:24;;;;;;;8.07;5.80;;;;;;;19.31;28.20;102706.25;5180177;28;20403;-51
2022/04/17 11:44:00;;;;;;;11.40;6.50;;;;;;;19.36;28.22;102700.44;5203589;28;20457;-49
2022/04/17 11:46:33;;;;;;;7.25;5.65;;;;;;;19.41;28.16;102697.25;5208544;28;20834;-50
2022/04/17 11:49:05;;;;;;;9.27;6.05;;;;;;;19.28;28.33;102687.81;5209756;28;20412;-48
2022/04/17 11:51:44;;;;;;;7.43;5.70;;;;;;;19.20;28.42;102674.44;5211445;28;20413;-49
2022/04/17 11:54:31;;;;;;;8.23;5.40;;;;;;;19.28;28.37;102673.59;5198491;28;20405;-50
2022/04/17 11:57:06;;;;;;;10.15;6.63;;;;;;;19.30;28.44;102672.44;5206101;28;20441;-49
2022/04/17 11:59:51;;;;;;;7.25;5.85;;;;;;;19.25;28.53;102666.72;5191346;28;20506;-50
2022/04/17 12:02:26;;;;;;;7.97;5.57;;;;;;;19.41;28.53;102665.09;5201662;28;20887;-50
2022/04/17 12:05:08;;;;;;;9.13;5.93;;;;;;;19.60;28.33;102675.50;5209301;28;20417;-51
2022/04/17 12:07:42;;;;;;;13.48;7.22;;;;;;;19.71;28.39;102656.47;5205000;28;20834;-49
2022/04/17 12:10:15;;;;;;;10.77;6.40;;;;;;;19.84;28.50;102653.28;5218496;28;20391;-51
2022/04/17 12:12:49;;;;;;;9.13;6.63;;;;;;;20.03;28.47;102644.06;5202324;28;20820;-54